sensor_id;sensor_type;location;lat;lon;timestamp;temperature;humidity
19941;DHT22;10132;50.864;5.176;2023-07-29T00:01:48;20.30;99.90
19941;DHT22;10132;50.864;5.176;2023-07-29T00:03:51;20.40;99.90
19941;DHT22;10132;50.864;5.176;2023-07-29T00:05:53;20.30;99.90
19941;DHT22;10132;50.864;5.176;2023-07-29T00:07:55;20.30;99.90
19941;DHT22;10132;50.864;5.176;2023-07-29T00:09:57;20.20;99.90
19941;DHT22;10132;50.864;5.176;2023-07-29T00:12:00;20.10;99.90
19941;DHT22;10132;50.864;5.176;2023-07-29T00:14:02;20.00;99.90
19941;DHT22;10132;50.864;5.176;2023-07-29T00:16:04;19.90;99.90
19941;DHT22;10132;50.864;5.176;2023-07-29T00:18:06;19.90;99.90
19941;DHT22;10132;50.864;5.176;2023-07-29T00:20:10;20.00;99.90
19941;DHT22;10132;50.864;5.176;2023-07-29T00:22:11;20.00;99.90
19941;DHT22;10132;50.864;5.176;2023-07-29T00:24:13;20.00;99.90
19941;DHT22;10132;50.864;5.176;2023-07-29T00:26:15;20.00;99.90
19941;DHT22;10132;50.864;5.176;2023-07-29T00:28:17;20.00;99.90
19941;DHT22;10132;50.864;5.176;2023-07-29T00:30:19;20.10;99.90
19941;DHT22;10132;50.864;5.176;2023-07-29T00:32:21;20.10;99.90
19941;DHT22;10132;50.864;5.176;2023-07-29T00:34:23;20.00;99.90
19941;DHT22;10132;50.864;5.176;2023-07-29T00:36:26;20.10;99.90
19941;DHT22;10132;50.864;5.176;2023-07-29T00:38:28;20.10;99.90
19941;DHT22;10132;50.864;5.176;2023-07-29T00:40:31;20.10;99.90
19941;DHT22;10132;50.864;5.176;2023-07-29T00:42:36;20.00;99.90
19941;DHT22;10132;50.864;5.176;2023-07-29T00:44:38;20.10;99.90
19941;DHT22;10132;50.864;5.176;2023-07-29T00:46:40;20.00;99.90
19941;DHT22;10132;50.864;5.176;2023-07-29T00:48:43;20.00;99.90
19941;DHT22;10132;50.864;5.176;2023-07-29T00:50:45;19.90;99.90
19941;DHT22;10132;50.864;5.176;2023-07-29T00:52:48;19.90;99.90
19941;DHT22;10132;50.864;5.176;2023-07-29T00:54:51;19.90;99.90
19941;DHT22;10132;50.864;5.176;2023-07-29T00:56:53;19.80;99.90
19941;DHT22;10132;50.864;5.176;2023-07-29T00:58:55;19.80;99.90
19941;DHT22;10132;50.864;5.176;2023-07-29T01:01:00;19.80;99.90
19941;DHT22;10132;50.864;5.176;2023-07-29T01:03:02;19.80;99.90
19941;DHT22;10132;50.864;5.176;2023-07-29T01:05:05;19.90;99.90
19941;DHT22;10132;50.864;5.176;2023-07-29T01:07:14;19.90;99.90
19941;DHT22;10132;50.864;5.176;2023-07-29T01:09:29;19.90;99.90
19941;DHT22;10132;50.864;5.176;2023-07-29T01:11:44;19.90;99.90
19941;DHT22;10132;50.864;5.176;2023-07-29T01:13:53;19.90;99.90
19941;DHT22;10132;50.864;5.176;2023-07-29T01:16:01;19.90;99.90
19941;DHT22;10132;50.864;5.176;2023-07-29T01:18:07;19.90;99.90
19941;DHT22;10132;50.864;5.176;2023-07-29T01:20:14;20.00;99.90
19941;DHT22;10132;50.864;5.176;2023-07-29T01:22:16;20.00;99.90
19941;DHT22;10132;50.864;5.176;2023-07-29T01:24:21;20.00;99.90
19941;DHT22;10132;50.864;5.176;2023-07-29T01:26:23;19.90;99.90
19941;DHT22;10132;50.864;5.176;2023-07-29T01:28:26;19.90;99.90
19941;DHT22;10132;50.864;5.176;2023-07-29T01:30:31;19.90;99.90
19941;DHT22;10132;50.864;5.176;2023-07-29T01:32:39;19.90;99.90
19941;DHT22;10132;50.864;5.176;2023-07-29T01:34:45;19.80;99.90
19941;DHT22;10132;50.864;5.176;2023-07-29T01:36:51;19.70;99.90
19941;DHT22;10132;50.864;5.176;2023-07-29T01:38:55;19.60;99.90
19941;DHT22;10132;50.864;5.176;2023-07-29T01:41:01;19.50;99.90
19941;DHT22;10132;50.864;5.176;2023-07-29T01:43:02;19.50;99.90
19941;DHT22;10132;50.864;5.176;2023-07-29T01:45:05;19.40;99.90
19941;DHT22;10132;50.864;5.176;2023-07-29T01:47:07;19.40;99.90
19941;DHT22;10132;50.864;5.176;2023-07-29T01:49:09;19.30;99.90
19941;DHT22;10132;50.864;5.176;2023-07-29T01:51:12;19.30;99.90
19941;DHT22;10132;50.864;5.176;2023-07-29T01:53:14;19.30;99.90
19941;DHT22;10132;50.864;5.176;2023-07-29T01:55:16;19.30;99.90
19941;DHT22;10132;50.864;5.176;2023-07-29T01:57:19;19.30;99.90
19941;DHT22;10132;50.864;5.176;2023-07-29T01:59:21;19.20;99.90
19941;DHT22;10132;50.864;5.176;2023-07-29T02:01:23;19.30;99.90
19941;DHT22;10132;50.864;5.176;2023-07-29T02:03:25;19.30;99.90
19941;DHT22;10132;50.864;5.176;2023-07-29T02:05:27;19.30;99.90
19941;DHT22;10132;50.864;5.176;2023-07-29T02:07:29;19.30;99.90
19941;DHT22;10132;50.864;5.176;2023-07-29T02:09:31;19.20;99.90
19941;DHT22;10132;50.864;5.176;2023-07-29T02:11:33;19.20;99.90
19941;DHT22;10132;50.864;5.176;2023-07-29T02:13:37;19.10;99.90
19941;DHT22;10132;50.864;5.176;2023-07-29T02:15:39;19.10;99.90
19941;DHT22;10132;50.864;5.176;2023-07-29T02:17:41;19.10;99.90
19941;DHT22;10132;50.864;5.176;2023-07-29T02:19:44;19.10;99.90
19941;DHT22;10132;50.864;5.176;2023-07-29T02:21:46;19.00;99.90
19941;DHT22;10132;50.864;5.176;2023-07-29T02:23:48;19.00;99.90
19941;DHT22;10132;50.864;5.176;2023-07-29T02:25:50;19.10;99.90
19941;DHT22;10132;50.864;5.176;2023-07-29T02:27:52;19.20;99.90
19941;DHT22;10132;50.864;5.176;2023-07-29T02:29:55;19.20;99.90
19941;DHT22;10132;50.864;5.176;2023-07-29T02:31:57;19.10;99.90
19941;DHT22;10132;50.864;5.176;2023-07-29T02:33:59;19.10;99.90
19941;DHT22;10132;50.864;5.176;2023-07-29T02:36:00;19.10;99.90
19941;DHT22;10132;50.864;5.176;2023-07-29T02:38:02;19.10;99.90
19941;DHT22;10132;50.864;5.176;2023-07-29T02:40:05;19.00;99.90
19941;DHT22;10132;50.864;5.176;2023-07-29T02:42:07;19.00;99.90
19941;DHT22;10132;50.864;5.176;2023-07-29T02:44:09;18.90;99.90
19941;DHT22;10132;50.864;5.176;2023-07-29T02:46:13;18.80;99.90
19941;DHT22;10132;50.864;5.176;2023-07-29T02:48:15;18.70;99.90
19941;DHT22;10132;50.864;5.176;2023-07-29T02:50:17;18.60;99.90
19941;DHT22;10132;50.864;5.176;2023-07-29T02:52:19;18.60;99.90
19941;DHT22;10132;50.864;5.176;2023-07-29T02:54:21;18.60;99.90
19941;DHT22;10132;50.864;5.176;2023-07-29T02:56:23;18.50;99.90
19941;DHT22;10132;50.864;5.176;2023-07-29T02:58:24;18.50;99.90
19941;DHT22;10132;50.864;5.176;2023-07-29T03:00:26;18.50;99.90
19941;DHT22;10132;50.864;5.176;2023-07-29T03:02:30;18.50;99.90
19941;DHT22;10132;50.864;5.176;2023-07-29T03:04:32;18.50;99.90
19941;DHT22;10132;50.864;5.176;2023-07-29T03:06:34;18.50;99.90
19941;DHT22;10132;50.864;5.176;2023-07-29T03:08:36;18.50;99.90
19941;DHT22;10132;50.864;5.176;2023-07-29T03:10:38;18.50;99.90
19941;DHT22;10132;50.864;5.176;2023-07-29T03:12:39;18.40;99.90
19941;DHT22;10132;50.864;5.176;2023-07-29T03:14:41;18.20;99.90
19941;DHT22;10132;50.864;5.176;2023-07-29T03:16:43;18.10;99.90
19941;DHT22;10132;50.864;5.176;2023-07-29T03:18:48;18.10;99.90
19941;DHT22;10132;50.864;5.176;2023-07-29T03:20:50;18.10;99.90
19941;DHT22;10132;50.864;5.176;2023-07-29T03:22:52;18.20;99.90
19941;DHT22;10132;50.864;5.176;2023-07-29T03:24:54;18.20;99.90
19941;DHT22;10132;50.864;5.176;2023-07-29T03:26:56;18.20;99.90
19941;DHT22;10132;50.864;5.176;2023-07-29T03:28:58;18.20;99.90
19941;DHT22;10132;50.864;5.176;2023-07-29T03:31:00;18.20;99.90
19941;DHT22;10132;50.864;5.176;2023-07-29T03:33:02;18.20;99.90
19941;DHT22;10132;50.864;5.176;2023-07-29T03:35:07;18.10;99.90
19941;DHT22;10132;50.864;5.176;2023-07-29T03:37:09;18.10;99.90
19941;DHT22;10132;50.864;5.176;2023-07-29T03:39:11;18.00;99.90
19941;DHT22;10132;50.864;5.176;2023-07-29T03:41:13;17.90;99.90
19941;DHT22;10132;50.864;5.176;2023-07-29T03:43:15;17.80;99.90
19941;DHT22;10132;50.864;5.176;2023-07-29T03:45:17;17.80;99.90
19941;DHT22;10132;50.864;5.176;2023-07-29T03:47:19;17.80;99.90
19941;DHT22;10132;50.864;5.176;2023-07-29T03:49:21;17.80;99.90
19941;DHT22;10132;50.864;5.176;2023-07-29T03:51:24;17.70;99.90
19941;DHT22;10132;50.864;5.176;2023-07-29T03:53:26;17.70;99.90
19941;DHT22;10132;50.864;5.176;2023-07-29T03:55:28;17.70;99.90
19941;DHT22;10132;50.864;5.176;2023-07-29T03:57:30;17.70;99.90
19941;DHT22;10132;50.864;5.176;2023-07-29T03:59:32;17.60;99.90
19941;DHT22;10132;50.864;5.176;2023-07-29T04:01:34;17.70;99.90
19941;DHT22;10132;50.864;5.176;2023-07-29T04:03:36;17.70;99.90
19941;DHT22;10132;50.864;5.176;2023-07-29T04:05:38;17.70;99.90
19941;DHT22;10132;50.864;5.176;2023-07-29T04:07:41;17.80;99.90
19941;DHT22;10132;50.864;5.176;2023-07-29T04:09:43;17.80;99.90
19941;DHT22;10132;50.864;5.176;2023-07-29T04:11:45;17.80;99.90
19941;DHT22;10132;50.864;5.176;2023-07-29T04:13:47;17.90;99.90
19941;DHT22;10132;50.864;5.176;2023-07-29T04:15:50;17.90;99.90
19941;DHT22;10132;50.864;5.176;2023-07-29T04:17:52;17.90;99.90
19941;DHT22;10132;50.864;5.176;2023-07-29T04:19:54;18.00;99.90
19941;DHT22;10132;50.864;5.176;2023-07-29T04:21:56;18.00;99.90
19941;DHT22;10132;50.864;5.176;2023-07-29T04:23:58;18.00;99.90
19941;DHT22;10132;50.864;5.176;2023-07-29T04:26:01;18.00;99.90
19941;DHT22;10132;50.864;5.176;2023-07-29T04:28:03;18.00;99.90
19941;DHT22;10132;50.864;5.176;2023-07-29T04:30:06;18.00;99.90
19941;DHT22;10132;50.864;5.176;2023-07-29T04:32:08;18.00;99.90
19941;DHT22;10132;50.864;5.176;2023-07-29T04:34:10;17.90;99.90
19941;DHT22;10132;50.864;5.176;2023-07-29T04:36:13;17.90;99.90
19941;DHT22;10132;50.864;5.176;2023-07-29T04:38:15;17.80;99.90
19941;DHT22;10132;50.864;5.176;2023-07-29T04:40:18;17.80;99.90
19941;DHT22;10132;50.864;5.176;2023-07-29T04:42:20;17.80;99.90
19941;DHT22;10132;50.864;5.176;2023-07-29T04:44:22;17.80;99.90
19941;DHT22;10132;50.864;5.176;2023-07-29T04:46:24;17.80;99.90
19941;DHT22;10132;50.864;5.176;2023-07-29T04:48:26;17.90;99.90
19941;DHT22;10132;50.864;5.176;2023-07-29T04:50:28;17.80;99.90
19941;DHT22;10132;50.864;5.176;2023-07-29T04:52:30;17.80;99.90
19941;DHT22;10132;50.864;5.176;2023-07-29T04:54:32;17.80;99.90
19941;DHT22;10132;50.864;5.176;2023-07-29T04:56:35;17.80;99.90
19941;DHT22;10132;50.864;5.176;2023-07-29T04:58:37;17.80;99.90
19941;DHT22;10132;50.864;5.176;2023-07-29T05:00:38;17.80;99.90
19941;DHT22;10132;50.864;5.176;2023-07-29T05:02:40;17.80;99.90
19941;DHT22;10132;50.864;5.176;2023-07-29T05:04:42;17.90;99.90
19941;DHT22;10132;50.864;5.176;2023-07-29T05:06:44;17.80;99.90
19941;DHT22;10132;50.864;5.176;2023-07-29T05:08:45;17.80;99.90
19941;DHT22;10132;50.864;5.176;2023-07-29T05:10:48;17.90;99.90
19941;DHT22;10132;50.864;5.176;2023-07-29T05:12:52;18.00;99.90
19941;DHT22;10132;50.864;5.176;2023-07-29T05:14:54;18.00;99.90
19941;DHT22;10132;50.864;5.176;2023-07-29T05:16:56;18.00;99.90
19941;DHT22;10132;50.864;5.176;2023-07-29T05:18:58;18.00;99.90
19941;DHT22;10132;50.864;5.176;2023-07-29T05:21:00;18.00;99.90
19941;DHT22;10132;50.864;5.176;2023-07-29T05:23:02;18.10;99.90
19941;DHT22;10132;50.864;5.176;2023-07-29T05:25:05;18.20;99.90
19941;DHT22;10132;50.864;5.176;2023-07-29T05:27:08;18.20;99.90
19941;DHT22;10132;50.864;5.176;2023-07-29T05:29:11;18.30;99.90
19941;DHT22;10132;50.864;5.176;2023-07-29T05:31:13;18.40;99.90
19941;DHT22;10132;50.864;5.176;2023-07-29T05:33:15;18.30;99.90
19941;DHT22;10132;50.864;5.176;2023-07-29T05:35:17;18.30;99.90
19941;DHT22;10132;50.864;5.176;2023-07-29T05:37:19;18.20;99.90
19941;DHT22;10132;50.864;5.176;2023-07-29T05:39:21;18.10;99.90
19941;DHT22;10132;50.864;5.176;2023-07-29T05:41:24;18.00;99.90
19941;DHT22;10132;50.864;5.176;2023-07-29T05:43:28;17.90;99.90
19941;DHT22;10132;50.864;5.176;2023-07-29T05:45:32;18.00;99.90
19941;DHT22;10132;50.864;5.176;2023-07-29T05:47:34;18.10;99.90
19941;DHT22;10132;50.864;5.176;2023-07-29T05:49:36;18.10;99.90
19941;DHT22;10132;50.864;5.176;2023-07-29T05:51:38;18.10;99.90
19941;DHT22;10132;50.864;5.176;2023-07-29T05:53:40;18.10;99.90
19941;DHT22;10132;50.864;5.176;2023-07-29T05:55:42;18.10;99.90
19941;DHT22;10132;50.864;5.176;2023-07-29T05:57:43;18.10;99.90
19941;DHT22;10132;50.864;5.176;2023-07-29T05:59:45;18.10;99.90
19941;DHT22;10132;50.864;5.176;2023-07-29T06:01:49;18.10;99.90
19941;DHT22;10132;50.864;5.176;2023-07-29T06:03:51;18.20;99.90
19941;DHT22;10132;50.864;5.176;2023-07-29T06:05:54;18.20;99.90
19941;DHT22;10132;50.864;5.176;2023-07-29T06:07:56;18.20;99.90
19941;DHT22;10132;50.864;5.176;2023-07-29T06:09:58;18.10;99.90
19941;DHT22;10132;50.864;5.176;2023-07-29T06:11:59;18.30;99.90
19941;DHT22;10132;50.864;5.176;2023-07-29T06:14:01;18.50;99.90
19941;DHT22;10132;50.864;5.176;2023-07-29T06:16:04;18.60;99.90
19941;DHT22;10132;50.864;5.176;2023-07-29T06:18:07;18.70;99.90
19941;DHT22;10132;50.864;5.176;2023-07-29T06:20:11;18.60;99.90
19941;DHT22;10132;50.864;5.176;2023-07-29T06:22:13;18.50;99.90
19941;DHT22;10132;50.864;5.176;2023-07-29T06:24:14;18.40;99.90
19941;DHT22;10132;50.864;5.176;2023-07-29T06:26:16;18.50;99.90
19941;DHT22;10132;50.864;5.176;2023-07-29T06:28:18;18.70;99.90
19941;DHT22;10132;50.864;5.176;2023-07-29T06:30:20;18.80;99.90
19941;DHT22;10132;50.864;5.176;2023-07-29T06:32:24;18.80;99.90
19941;DHT22;10132;50.864;5.176;2023-07-29T06:34:27;18.70;99.90
19941;DHT22;10132;50.864;5.176;2023-07-29T06:36:29;18.60;99.90
19941;DHT22;10132;50.864;5.176;2023-07-29T06:38:31;18.70;99.90
19941;DHT22;10132;50.864;5.176;2023-07-29T06:40:34;18.80;99.90
19941;DHT22;10132;50.864;5.176;2023-07-29T06:42:36;19.00;99.90
19941;DHT22;10132;50.864;5.176;2023-07-29T06:44:39;19.00;99.90
19941;DHT22;10132;50.864;5.176;2023-07-29T06:46:41;19.10;99.90
19941;DHT22;10132;50.864;5.176;2023-07-29T06:48:43;19.20;99.90
19941;DHT22;10132;50.864;5.176;2023-07-29T06:50:46;19.30;99.90
19941;DHT22;10132;50.864;5.176;2023-07-29T06:52:48;19.50;99.90
19941;DHT22;10132;50.864;5.176;2023-07-29T06:54:50;19.50;99.90
19941;DHT22;10132;50.864;5.176;2023-07-29T06:56:52;19.60;99.90
19941;DHT22;10132;50.864;5.176;2023-07-29T06:58:54;19.50;99.90
19941;DHT22;10132;50.864;5.176;2023-07-29T07:00:56;19.50;99.90
19941;DHT22;10132;50.864;5.176;2023-07-29T07:02:58;19.60;99.90
19941;DHT22;10132;50.864;5.176;2023-07-29T07:05:00;19.70;99.90
19941;DHT22;10132;50.864;5.176;2023-07-29T07:07:04;19.70;99.90
19941;DHT22;10132;50.864;5.176;2023-07-29T07:09:07;19.40;99.90
19941;DHT22;10132;50.864;5.176;2023-07-29T07:11:09;19.40;99.90
19941;DHT22;10132;50.864;5.176;2023-07-29T07:13:11;19.40;99.90
19941;DHT22;10132;50.864;5.176;2023-07-29T07:15:13;19.60;99.90
19941;DHT22;10132;50.864;5.176;2023-07-29T07:17:15;19.60;99.90
19941;DHT22;10132;50.864;5.176;2023-07-29T07:19:16;19.50;99.90
19941;DHT22;10132;50.864;5.176;2023-07-29T07:21:18;19.40;99.90
19941;DHT22;10132;50.864;5.176;2023-07-29T07:23:21;19.60;99.90
19941;DHT22;10132;50.864;5.176;2023-07-29T07:25:23;19.70;99.90
19941;DHT22;10132;50.864;5.176;2023-07-29T07:27:25;19.80;99.90
19941;DHT22;10132;50.864;5.176;2023-07-29T07:29:26;20.00;99.90
19941;DHT22;10132;50.864;5.176;2023-07-29T07:31:28;20.10;99.90
19941;DHT22;10132;50.864;5.176;2023-07-29T07:33:30;20.10;99.90
19941;DHT22;10132;50.864;5.176;2023-07-29T07:35:32;20.10;99.90
19941;DHT22;10132;50.864;5.176;2023-07-29T07:37:34;20.20;99.90
19941;DHT22;10132;50.864;5.176;2023-07-29T07:39:37;20.20;99.90
19941;DHT22;10132;50.864;5.176;2023-07-29T07:41:40;20.20;99.90
19941;DHT22;10132;50.864;5.176;2023-07-29T07:43:42;20.10;99.90
19941;DHT22;10132;50.864;5.176;2023-07-29T07:45:44;20.10;99.90
19941;DHT22;10132;50.864;5.176;2023-07-29T07:47:46;20.00;99.90
19941;DHT22;10132;50.864;5.176;2023-07-29T07:49:48;19.80;99.90
19941;DHT22;10132;50.864;5.176;2023-07-29T07:51:51;20.10;99.90
19941;DHT22;10132;50.864;5.176;2023-07-29T07:53:53;20.20;99.90
19941;DHT22;10132;50.864;5.176;2023-07-29T07:55:56;20.30;99.90
19941;DHT22;10132;50.864;5.176;2023-07-29T07:57:58;20.20;99.90
19941;DHT22;10132;50.864;5.176;2023-07-29T08:00:00;20.50;99.90
19941;DHT22;10132;50.864;5.176;2023-07-29T08:02:03;20.60;99.90
19941;DHT22;10132;50.864;5.176;2023-07-29T08:04:05;20.50;99.90
19941;DHT22;10132;50.864;5.176;2023-07-29T08:06:07;20.30;99.90
19941;DHT22;10132;50.864;5.176;2023-07-29T08:08:09;20.80;99.90
19941;DHT22;10132;50.864;5.176;2023-07-29T08:10:11;21.00;99.90
19941;DHT22;10132;50.864;5.176;2023-07-29T08:12:13;21.20;99.90
19941;DHT22;10132;50.864;5.176;2023-07-29T08:14:15;21.10;99.90
19941;DHT22;10132;50.864;5.176;2023-07-29T08:16:17;21.10;99.90
19941;DHT22;10132;50.864;5.176;2023-07-29T08:18:19;21.00;99.90
19941;DHT22;10132;50.864;5.176;2023-07-29T08:20:22;21.00;99.90
19941;DHT22;10132;50.864;5.176;2023-07-29T08:22:24;21.20;99.90
19941;DHT22;10132;50.864;5.176;2023-07-29T08:24:26;21.30;99.90
19941;DHT22;10132;50.864;5.176;2023-07-29T08:26:28;21.20;99.90
19941;DHT22;10132;50.864;5.176;2023-07-29T08:28:33;21.10;99.90
19941;DHT22;10132;50.864;5.176;2023-07-29T08:30:35;21.10;99.90
19941;DHT22;10132;50.864;5.176;2023-07-29T08:32:37;21.10;99.90
19941;DHT22;10132;50.864;5.176;2023-07-29T08:34:39;21.40;99.90
19941;DHT22;10132;50.864;5.176;2023-07-29T08:36:41;21.40;99.90
19941;DHT22;10132;50.864;5.176;2023-07-29T08:38:43;21.40;99.90
19941;DHT22;10132;50.864;5.176;2023-07-29T08:40:49;21.20;99.90
19941;DHT22;10132;50.864;5.176;2023-07-29T08:42:51;21.30;99.90
19941;DHT22;10132;50.864;5.176;2023-07-29T08:44:56;21.00;99.90
19941;DHT22;10132;50.864;5.176;2023-07-29T08:46:59;20.90;99.90
19941;DHT22;10132;50.864;5.176;2023-07-29T08:49:02;20.90;99.90
19941;DHT22;10132;50.864;5.176;2023-07-29T08:51:04;21.10;99.90
19941;DHT22;10132;50.864;5.176;2023-07-29T08:53:07;21.40;99.90
19941;DHT22;10132;50.864;5.176;2023-07-29T08:55:09;21.40;99.90
19941;DHT22;10132;50.864;5.176;2023-07-29T08:57:12;21.40;99.90
19941;DHT22;10132;50.864;5.176;2023-07-29T08:59:14;21.50;99.90
19941;DHT22;10132;50.864;5.176;2023-07-29T09:01:19;22.10;99.90
19941;DHT22;10132;50.864;5.176;2023-07-29T09:03:21;22.60;99.90
19941;DHT22;10132;50.864;5.176;2023-07-29T09:05:23;22.50;99.90
19941;DHT22;10132;50.864;5.176;2023-07-29T09:07:26;22.40;99.90
19941;DHT22;10132;50.864;5.176;2023-07-29T09:09:28;22.60;99.90
19941;DHT22;10132;50.864;5.176;2023-07-29T09:11:30;22.50;99.90
19941;DHT22;10132;50.864;5.176;2023-07-29T09:13:32;22.00;99.90
19941;DHT22;10132;50.864;5.176;2023-07-29T09:15:36;21.90;99.90
19941;DHT22;10132;50.864;5.176;2023-07-29T09:17:40;21.60;99.90
19941;DHT22;10132;50.864;5.176;2023-07-29T09:19:42;21.80;99.90
19941;DHT22;10132;50.864;5.176;2023-07-29T09:21:49;21.70;99.90
19941;DHT22;10132;50.864;5.176;2023-07-29T09:23:52;21.80;99.90
19941;DHT22;10132;50.864;5.176;2023-07-29T09:26:01;22.00;99.90
19941;DHT22;10132;50.864;5.176;2023-07-29T09:28:08;22.10;99.90
19941;DHT22;10132;50.864;5.176;2023-07-29T09:30:15;22.10;99.90
19941;DHT22;10132;50.864;5.176;2023-07-29T09:32:18;21.90;99.90
19941;DHT22;10132;50.864;5.176;2023-07-29T09:34:23;21.70;99.90
19941;DHT22;10132;50.864;5.176;2023-07-29T09:36:25;21.60;99.90
19941;DHT22;10132;50.864;5.176;2023-07-29T09:38:28;21.40;99.90
19941;DHT22;10132;50.864;5.176;2023-07-29T09:40:34;21.40;99.90
19941;DHT22;10132;50.864;5.176;2023-07-29T09:42:38;21.50;99.90
19941;DHT22;10132;50.864;5.176;2023-07-29T09:44:39;21.90;99.90
19941;DHT22;10132;50.864;5.176;2023-07-29T09:46:46;22.50;99.90
19941;DHT22;10132;50.864;5.176;2023-07-29T09:48:48;22.80;99.90
19941;DHT22;10132;50.864;5.176;2023-07-29T09:50:52;23.10;99.90
19941;DHT22;10132;50.864;5.176;2023-07-29T09:52:55;23.10;99.90
19941;DHT22;10132;50.864;5.176;2023-07-29T09:54:59;23.60;99.90
19941;DHT22;10132;50.864;5.176;2023-07-29T09:57:01;23.90;99.90
19941;DHT22;10132;50.864;5.176;2023-07-29T09:59:04;24.00;99.90
19941;DHT22;10132;50.864;5.176;2023-07-29T10:01:06;23.60;99.90
19941;DHT22;10132;50.864;5.176;2023-07-29T10:03:08;23.70;99.90
19941;DHT22;10132;50.864;5.176;2023-07-29T10:05:11;23.60;99.90
19941;DHT22;10132;50.864;5.176;2023-07-29T10:07:14;23.40;99.90
19941;DHT22;10132;50.864;5.176;2023-07-29T10:09:18;23.60;99.90
19941;DHT22;10132;50.864;5.176;2023-07-29T10:11:22;23.80;99.90
19941;DHT22;10132;50.864;5.176;2023-07-29T10:13:26;23.60;99.90
19941;DHT22;10132;50.864;5.176;2023-07-29T10:15:29;23.70;99.90
19941;DHT22;10132;50.864;5.176;2023-07-29T10:17:34;23.90;99.90
19941;DHT22;10132;50.864;5.176;2023-07-29T10:19:37;23.80;99.90
19941;DHT22;10132;50.864;5.176;2023-07-29T10:21:39;23.60;99.90
19941;DHT22;10132;50.864;5.176;2023-07-29T10:23:47;23.80;99.90
19941;DHT22;10132;50.864;5.176;2023-07-29T10:25:55;24.00;99.90
19941;DHT22;10132;50.864;5.176;2023-07-29T10:28:03;24.20;99.90
19941;DHT22;10132;50.864;5.176;2023-07-29T10:30:06;24.50;99.90
19941;DHT22;10132;50.864;5.176;2023-07-29T10:32:11;24.60;99.90
19941;DHT22;10132;50.864;5.176;2023-07-29T10:34:13;24.30;99.90
19941;DHT22;10132;50.864;5.176;2023-07-29T10:36:16;23.60;99.90
19941;DHT22;10132;50.864;5.176;2023-07-29T10:38:19;23.00;99.90
19941;DHT22;10132;50.864;5.176;2023-07-29T10:40:24;22.80;99.90
19941;DHT22;10132;50.864;5.176;2023-07-29T10:42:26;22.80;99.90
19941;DHT22;10132;50.864;5.176;2023-07-29T10:44:47;22.90;99.90
19941;DHT22;10132;50.864;5.176;2023-07-29T10:46:51;23.00;99.90
19941;DHT22;10132;50.864;5.176;2023-07-29T10:48:54;22.80;99.90
19941;DHT22;10132;50.864;5.176;2023-07-29T10:51:22;22.80;99.90
19941;DHT22;10132;50.864;5.176;2023-07-29T10:53:29;23.00;99.90
19941;DHT22;10132;50.864;5.176;2023-07-29T10:55:34;23.00;99.90
19941;DHT22;10132;50.864;5.176;2023-07-29T10:57:39;23.00;99.90
19941;DHT22;10132;50.864;5.176;2023-07-29T10:59:54;22.80;99.90
19941;DHT22;10132;50.864;5.176;2023-07-29T11:01:57;22.60;99.90
19941;DHT22;10132;50.864;5.176;2023-07-29T11:04:24;22.60;99.90
19941;DHT22;10132;50.864;5.176;2023-07-29T11:06:27;22.80;99.90
19941;DHT22;10132;50.864;5.176;2023-07-29T11:08:30;22.40;99.90
19941;DHT22;10132;50.864;5.176;2023-07-29T11:10:42;22.30;99.90
19941;DHT22;10132;50.864;5.176;2023-07-29T11:12:45;22.00;99.90
19941;DHT22;10132;50.864;5.176;2023-07-29T11:14:48;21.80;99.90
19941;DHT22;10132;50.864;5.176;2023-07-29T11:16:49;21.50;99.90
19941;DHT22;10132;50.864;5.176;2023-07-29T11:18:52;21.30;99.90
19941;DHT22;10132;50.864;5.176;2023-07-29T11:20:54;21.40;99.90
19941;DHT22;10132;50.864;5.176;2023-07-29T11:22:57;21.40;99.90
19941;DHT22;10132;50.864;5.176;2023-07-29T11:24:59;21.60;99.90
19941;DHT22;10132;50.864;5.176;2023-07-29T11:27:01;21.50;99.90
19941;DHT22;10132;50.864;5.176;2023-07-29T11:29:04;21.60;99.90
19941;DHT22;10132;50.864;5.176;2023-07-29T11:31:06;21.60;99.90
19941;DHT22;10132;50.864;5.176;2023-07-29T11:33:08;21.50;99.90
19941;DHT22;10132;50.864;5.176;2023-07-29T11:35:11;21.30;99.90
19941;DHT22;10132;50.864;5.176;2023-07-29T11:37:15;20.80;99.90
19941;DHT22;10132;50.864;5.176;2023-07-29T11:39:16;20.70;99.90
19941;DHT22;10132;50.864;5.176;2023-07-29T11:41:20;20.60;99.90
19941;DHT22;10132;50.864;5.176;2023-07-29T11:43:24;20.50;99.90
19941;DHT22;10132;50.864;5.176;2023-07-29T11:45:27;20.20;99.90
19941;DHT22;10132;50.864;5.176;2023-07-29T11:47:29;20.40;99.90
19941;DHT22;10132;50.864;5.176;2023-07-29T11:49:30;20.40;99.90
19941;DHT22;10132;50.864;5.176;2023-07-29T11:51:34;20.20;99.90
19941;DHT22;10132;50.864;5.176;2023-07-29T11:53:36;20.60;99.90
19941;DHT22;10132;50.864;5.176;2023-07-29T11:55:38;21.20;99.90
19941;DHT22;10132;50.864;5.176;2023-07-29T11:57:41;21.60;99.90
19941;DHT22;10132;50.864;5.176;2023-07-29T11:59:46;21.90;99.90
19941;DHT22;10132;50.864;5.176;2023-07-29T12:01:47;22.20;99.90
19941;DHT22;10132;50.864;5.176;2023-07-29T12:03:50;22.40;99.90
19941;DHT22;10132;50.864;5.176;2023-07-29T12:05:52;22.30;99.90
19941;DHT22;10132;50.864;5.176;2023-07-29T12:07:54;22.40;99.90
19941;DHT22;10132;50.864;5.176;2023-07-29T12:09:56;22.30;99.90
19941;DHT22;10132;50.864;5.176;2023-07-29T12:11:58;22.30;99.90
19941;DHT22;10132;50.864;5.176;2023-07-29T12:14:00;22.20;99.90
19941;DHT22;10132;50.864;5.176;2023-07-29T12:16:04;21.40;99.90
19941;DHT22;10132;50.864;5.176;2023-07-29T12:18:06;20.70;99.90
19941;DHT22;10132;50.864;5.176;2023-07-29T12:20:10;20.20;99.90
19941;DHT22;10132;50.864;5.176;2023-07-29T12:22:11;20.00;99.90
19941;DHT22;10132;50.864;5.176;2023-07-29T12:24:13;19.80;99.90
19941;DHT22;10132;50.864;5.176;2023-07-29T12:26:15;19.90;99.90
19941;DHT22;10132;50.864;5.176;2023-07-29T12:28:16;20.20;99.90
19941;DHT22;10132;50.864;5.176;2023-07-29T12:30:20;20.60;99.90
19941;DHT22;10132;50.864;5.176;2023-07-29T12:32:26;20.90;99.90
19941;DHT22;10132;50.864;5.176;2023-07-29T12:34:29;21.00;99.90
19941;DHT22;10132;50.864;5.176;2023-07-29T12:36:42;21.20;99.90
19941;DHT22;10132;50.864;5.176;2023-07-29T12:38:45;21.30;99.90
19941;DHT22;10132;50.864;5.176;2023-07-29T12:40:47;21.60;99.90
19941;DHT22;10132;50.864;5.176;2023-07-29T12:42:49;22.10;99.90
19941;DHT22;10132;50.864;5.176;2023-07-29T12:44:50;22.70;99.90
19941;DHT22;10132;50.864;5.176;2023-07-29T12:46:53;23.30;99.90
19941;DHT22;10132;50.864;5.176;2023-07-29T12:48:56;23.80;99.90
19941;DHT22;10132;50.864;5.176;2023-07-29T12:50:58;23.80;99.90
19941;DHT22;10132;50.864;5.176;2023-07-29T12:53:00;23.80;99.90
19941;DHT22;10132;50.864;5.176;2023-07-29T12:55:01;23.90;99.90
19941;DHT22;10132;50.864;5.176;2023-07-29T12:57:04;23.80;99.90